createdAt,value
2022-07-29T00:00:03.738Z,100135.23
2022-07-29T00:03:26.679Z,100136.80
2022-07-29T00:06:29.564Z,100133.94
2022-07-29T00:09:33.269Z,100134.95
2022-07-29T00:12:45.003Z,100140.52
2022-07-29T00:15:47.876Z,100138.39
2022-07-29T00:18:50.745Z,100138.29
2022-07-29T00:21:53.828Z,100138.77
2022-07-29T00:24:56.795Z,100140.32
2022-07-29T00:27:59.868Z,100140.03
2022-07-29T00:31:03.096Z,100139.92
2022-07-29T00:34:07.651Z,100138.12
2022-07-29T00:37:10.674Z,100136.23
2022-07-29T00:40:13.903Z,100138.16
2022-07-29T00:43:18.410Z,100139.68
2022-07-29T00:46:21.235Z,100139.72
2022-07-29T00:49:24.294Z,100135.30
2022-07-29T00:52:27.943Z,100130.30
2022-07-29T00:55:31.533Z,100130.02
2022-07-29T00:58:36.624Z,100128.30
2022-07-29T01:01:40.406Z,100124.27
2022-07-29T01:04:43.420Z,100123.88
2022-07-29T01:07:54.872Z,100126.30
2022-07-29T01:10:58.308Z,100128.66
2022-07-29T01:14:02.417Z,100124.04
2022-07-29T01:17:13.884Z,100115.96
2022-07-29T01:20:42.177Z,100107.95
2022-07-29T01:23:52.625Z,100109.55
2022-07-29T01:27:03.986Z,100103.98
2022-07-29T01:30:07.670Z,100104.92
2022-07-29T01:33:36.740Z,100106.59
2022-07-29T01:36:55.576Z,100100.38
2022-07-29T01:40:03.162Z,100095.60
2022-07-29T01:43:22.390Z,100094.62
2022-07-29T01:46:34.036Z,100100.30
2022-07-29T01:49:40.966Z,100099.73
2022-07-29T01:52:51.173Z,100099.41
2022-07-29T01:55:54.952Z,100098.71
2022-07-29T01:59:05.671Z,100094.23
2022-07-29T02:02:11.172Z,100084.84
2022-07-29T02:05:17.351Z,100084.01
2022-07-29T02:08:22.143Z,100079.48
2022-07-29T02:11:25.372Z,100077.97
2022-07-29T02:14:32.846Z,100077.52
2022-07-29T02:18:06.110Z,100074.17
2022-07-29T02:21:15.085Z,100081.64
2022-07-29T02:24:20.147Z,100079.70
2022-07-29T02:27:24.852Z,100069.76
2022-07-29T02:30:29.971Z,100066.59
2022-07-29T02:33:34.074Z,100063.80
2022-07-29T02:36:38.375Z,100059.38
2022-07-29T02:39:45.834Z,100054.41
2022-07-29T02:42:49.644Z,100054.73
2022-07-29T02:45:56.173Z,100052.09
2022-07-29T02:49:20.383Z,100049.23
2022-07-29T02:52:32.944Z,100049.91
2022-07-29T02:55:46.725Z,100045.21
2022-07-29T02:58:56.746Z,100045.39
2022-07-29T03:02:01.863Z,100048.79
2022-07-29T03:05:29.461Z,100048.46
2022-07-29T03:08:33.597Z,100054.50
2022-07-29T03:11:42.310Z,100057.81
2022-07-29T03:14:54.333Z,100052.92
2022-07-29T03:17:59.161Z,100051.90
2022-07-29T03:21:02.432Z,100055.50
2022-07-29T03:24:10.046Z,100056.24
2022-07-29T03:27:14.217Z,100060.55
2022-07-29T03:30:21.679Z,100061.69
2022-07-29T03:33:25.129Z,100062.83
2022-07-29T03:36:28.248Z,100067.67
2022-07-29T03:40:02.945Z,100062.85
2022-07-29T03:43:08.477Z,100064.68
2022-07-29T03:47:08.652Z,100057.35
2022-07-29T03:50:15.518Z,100063.69
2022-07-29T03:53:19.315Z,100067.23
2022-07-29T03:56:24.742Z,100069.55
2022-07-29T03:59:28.943Z,100070.73
2022-07-29T04:02:33.664Z,100076.52
2022-07-29T04:05:36.642Z,100075.67
2022-07-29T04:09:45.514Z,100071.42
2022-07-29T04:12:48.847Z,100076.59
2022-07-29T04:15:52.375Z,100074.08
2022-07-29T04:18:55.499Z,100066.80
2022-07-29T04:22:00.784Z,100071.59
2022-07-29T04:25:04.700Z,100069.20
2022-07-29T04:28:08.936Z,100068.44
2022-07-29T04:31:13.362Z,100066.24
2022-07-29T04:34:16.487Z,100070.27
2022-07-29T04:37:19.998Z,100071.31
2022-07-29T04:40:23.379Z,100068.04
2022-07-29T04:43:27.375Z,100072.11
2022-07-29T04:46:30.894Z,100071.27
2022-07-29T04:49:33.838Z,100072.61
2022-07-29T04:52:37.879Z,100074.05
2022-07-29T04:55:48.482Z,100076.19
2022-07-29T04:58:52.522Z,100080.27
2022-07-29T05:01:56.415Z,100081.15
2022-07-29T05:05:02.884Z,100080.15
2022-07-29T05:08:36.198Z,100082.39
2022-07-29T05:11:40.712Z,100085.52
2022-07-29T05:14:46.985Z,100083.72
2022-07-29T05:18:11.241Z,100084.15
2022-07-29T05:21:22.860Z,100078.05
2022-07-29T05:24:33.789Z,100079.06
2022-07-29T05:27:38.370Z,100077.65
2022-07-29T05:30:44.545Z,100074.80
2022-07-29T05:33:48.495Z,100075.63
2022-07-29T05:36:54.766Z,100073.27
2022-07-29T05:40:02.355Z,100074.15
2022-07-29T05:43:11.456Z,100072.41
2022-07-29T05:46:18.253Z,100067.25
2022-07-29T05:49:26.772Z,100068.29
2022-07-29T05:52:30.900Z,100070.05
2022-07-29T05:55:35.975Z,100070.95
2022-07-29T05:58:52.984Z,100070.37
2022-07-29T06:02:01.472Z,100068.25
2022-07-29T06:05:17.969Z,100067.46
2022-07-29T06:08:28.004Z,100067.06
2022-07-29T06:11:31.510Z,100071.07
2022-07-29T06:14:34.589Z,100071.66
2022-07-29T06:17:37.554Z,100076.91
2022-07-29T06:21:00.378Z,100076.85
2022-07-29T06:24:03.664Z,100077.31
2022-07-29T06:27:06.783Z,100080.02
2022-07-29T06:30:10.325Z,100080.05
2022-07-29T06:33:18.147Z,100082.11
2022-07-29T06:36:20.921Z,100081.25
2022-07-29T06:39:25.990Z,100083.96
2022-07-29T06:42:28.972Z,100085.48
2022-07-29T06:45:35.824Z,100082.45
2022-07-29T06:48:41.953Z,100084.84
2022-07-29T06:51:47.803Z,100086.39
2022-07-29T06:54:50.787Z,100088.91
2022-07-29T06:57:53.751Z,100092.13
2022-07-29T07:00:58.334Z,100090.35
2022-07-29T07:04:01.331Z,100084.05
2022-07-29T07:07:04.525Z,100087.72
2022-07-29T07:10:09.121Z,100086.32
2022-07-29T07:13:12.499Z,100089.67
2022-07-29T07:16:15.840Z,100096.05
2022-07-29T07:19:20.389Z,100097.45
2022-07-29T07:22:23.463Z,100096.03
2022-07-29T07:25:26.739Z,100093.29
2022-07-29T07:28:30.474Z,100091.63
2022-07-29T07:31:34.261Z,100093.69
2022-07-29T07:34:39.190Z,100091.16
2022-07-29T07:37:42.415Z,100091.08
2022-07-29T07:40:47.641Z,100094.14
2022-07-29T07:43:50.713Z,100096.64
2022-07-29T07:46:54.658Z,100093.91
2022-07-29T07:49:58.124Z,100096.41
2022-07-29T07:53:03.313Z,100093.70
2022-07-29T07:56:12.265Z,100093.60
2022-07-29T07:59:15.753Z,100090.27
2022-07-29T08:02:18.887Z,100086.10
2022-07-29T08:05:22.169Z,100093.20
2022-07-29T08:08:25.152Z,100086.69
2022-07-29T08:11:29.578Z,100090.38
2022-07-29T08:14:38.661Z,100081.19
2022-07-29T08:17:42.851Z,100084.09
2022-07-29T08:20:46.337Z,100081.27
2022-07-29T08:24:00.673Z,100081.19
2022-07-29T08:27:12.934Z,100074.70
2022-07-29T08:30:29.229Z,100077.75
2022-07-29T08:33:32.200Z,100081.63
2022-07-29T08:36:39.463Z,100081.97
2022-07-29T08:39:42.653Z,100083.77
2022-07-29T08:42:45.723Z,100085.16
2022-07-29T08:45:51.808Z,100081.21
2022-07-29T08:48:56.630Z,100080.83
2022-07-29T08:52:00.900Z,100078.91
2022-07-29T08:55:05.610Z,100080.40
2022-07-29T08:58:09.013Z,100081.05
2022-07-29T09:01:22.062Z,100085.63
2022-07-29T09:04:28.462Z,100089.65
2022-07-29T09:07:34.705Z,100087.23
2022-07-29T09:10:38.063Z,100084.55
2022-07-29T09:13:41.540Z,100084.55
2022-07-29T09:17:02.967Z,100083.14
2022-07-29T09:20:15.571Z,100083.84
2022-07-29T09:23:23.300Z,100080.07
2022-07-29T09:26:32.316Z,100072.52
2022-07-29T09:29:36.444Z,100072.52
2022-07-29T09:32:59.854Z,100070.73
2022-07-29T09:36:08.511Z,100069.89
2022-07-29T09:39:12.352Z,100066.56
2022-07-29T09:42:29.592Z,100065.86
2022-07-29T09:45:34.759Z,100063.15
2022-07-29T09:48:37.769Z,100066.27
2022-07-29T09:51:41.530Z,100062.62
2022-07-29T09:54:46.045Z,100056.80
2022-07-29T09:57:49.008Z,100046.29
2022-07-29T10:00:53.565Z,100051.14
2022-07-29T10:03:56.797Z,100052.96
2022-07-29T10:07:04.620Z,100053.23
2022-07-29T10:10:08.790Z,100049.59
2022-07-29T10:13:16.163Z,100047.27
2022-07-29T10:16:20.111Z,100048.67
2022-07-29T10:19:24.779Z,100048.45
2022-07-29T10:22:52.046Z,100035.10
2022-07-29T10:25:51.683Z,100042.26
2022-07-29T10:28:54.654Z,100037.67
2022-07-29T10:32:16.350Z,100036.28
2022-07-29T10:35:56.061Z,100032.05
2022-07-29T10:39:22.287Z,100028.43
2022-07-29T10:42:33.258Z,100023.39
2022-07-29T10:45:38.034Z,100028.48
2022-07-29T10:49:17.233Z,100022.66
2022-07-29T10:52:26.644Z,100016.46
2022-07-29T10:55:43.177Z,100017.35
2022-07-29T10:59:22.907Z,100017.41
2022-07-29T11:02:42.210Z,100015.95
2022-07-29T11:05:59.480Z,100011.83
2022-07-29T11:09:34.915Z,100005.73
2022-07-29T11:12:48.103Z,100010.38
2022-07-29T11:15:56.032Z,100006.44
2022-07-29T11:19:14.533Z,100008.15
2022-07-29T11:22:46.060Z,100006.92
2022-07-29T11:26:23.070Z,100000.34
2022-07-29T11:29:27.081Z,100002.20
2022-07-29T11:32:39.306Z,100002.52
2022-07-29T11:35:42.542Z,100003.05
2022-07-29T11:39:43.641Z,100004.75
2022-07-29T11:42:51.995Z,99996.98
2022-07-29T11:45:55.419Z,100003.90
2022-07-29T11:48:59.781Z,100003.60
2022-07-29T11:52:04.111Z,99999.57
2022-07-29T11:55:10.247Z,99994.16
2022-07-29T11:58:16.683Z,99990.44
2022-07-29T12:01:22.558Z,99985.98
2022-07-29T12:04:25.943Z,99986.91
2022-07-29T12:07:34.973Z,99987.14
2022-07-29T12:10:39.408Z,99986.70
2022-07-29T12:13:42.430Z,99982.69
2022-07-29T12:16:45.540Z,99983.86
2022-07-29T12:19:48.995Z,99978.35
2022-07-29T12:22:55.705Z,99982.48
2022-07-29T12:25:59.681Z,99971.77
2022-07-29T12:29:03.543Z,99981.52
2022-07-29T12:32:15.029Z,99974.80
2022-07-29T12:35:23.500Z,99970.08
2022-07-29T12:38:27.234Z,99969.90
2022-07-29T12:41:31.086Z,99968.72
2022-07-29T12:44:51.235Z,99969.50
2022-07-29T12:47:54.682Z,99969.00
2022-07-29T12:51:00.677Z,99965.63
2022-07-29T12:54:05.496Z,99961.72
2022-07-29T12:57:08.564Z,99963.39
2022-07-29T13:00:25.177Z,99963.27
2022-07-29T13:03:28.525Z,99964.44
2022-07-29T13:06:46.023Z,99953.06
2022-07-29T13:09:54.045Z,99951.89
2022-07-29T13:13:02.924Z,99948.23
2022-07-29T13:16:08.931Z,99940.50
2022-07-29T13:19:13.371Z,99942.05
2022-07-29T13:22:18.841Z,99937.71
2022-07-29T13:25:27.551Z,99937.34
2022-07-29T13:28:30.475Z,99936.27
2022-07-29T13:31:33.654Z,99936.08
2022-07-29T13:34:36.623Z,99934.48
2022-07-29T13:37:39.819Z,99929.52
2022-07-29T13:40:43.085Z,99922.67
2022-07-29T13:43:46.056Z,99916.05
2022-07-29T13:46:52.915Z,99912.23
2022-07-29T13:49:56.446Z,99914.45
2022-07-29T13:52:59.676Z,99907.34
2022-07-29T13:56:02.648Z,99911.14
2022-07-29T13:59:05.630Z,99906.52
2022-07-29T14:02:10.072Z,99903.73
2022-07-29T14:05:13.192Z,99904.23
2022-07-29T14:08:16.280Z,99907.86
2022-07-29T14:11:19.149Z,99901.73
2022-07-29T14:14:22.430Z,99895.29
2022-07-29T14:17:25.473Z,99893.66
2022-07-29T14:20:31.039Z,99891.32
2022-07-29T14:23:34.009Z,99887.31
2022-07-29T14:26:37.412Z,99889.58
2022-07-29T14:29:40.470Z,99887.21
2022-07-29T14:32:43.446Z,99895.00
2022-07-29T14:35:48.967Z,99894.89
2022-07-29T14:38:52.051Z,99896.39
2022-07-29T14:42:01.814Z,99894.46
2022-07-29T14:45:10.227Z,99893.85
2022-07-29T14:48:13.245Z,99892.95
2022-07-29T14:51:16.526Z,99890.67
2022-07-29T14:54:19.905Z,99888.89
2022-07-29T14:57:23.082Z,99888.18
2022-07-29T15:00:26.974Z,99887.31
2022-07-29T15:03:29.975Z,99885.33
2022-07-29T15:06:37.731Z,99879.19
2022-07-29T15:09:49.478Z,99879.11
2022-07-29T15:12:53.605Z,99877.59
2022-07-29T15:16:00.082Z,99876.47
2022-07-29T15:19:04.844Z,99876.48
2022-07-29T15:22:15.907Z,99870.42
2022-07-29T15:25:19.114Z,99864.69
2022-07-29T15:28:28.844Z,99867.16
2022-07-29T15:31:38.257Z,99871.69
2022-07-29T15:34:42.035Z,99872.23
2022-07-29T15:37:49.626Z,99875.01
2022-07-29T15:40:56.069Z,99868.16
2022-07-29T15:44:04.318Z,99866.54
2022-07-29T15:47:08.359Z,99860.25
2022-07-29T15:50:16.448Z,99861.39
2022-07-29T15:53:19.847Z,99858.98
2022-07-29T15:56:25.769Z,99849.55
2022-07-29T15:59:29.357Z,99848.06
2022-07-29T16:02:35.237Z,99849.80
2022-07-29T16:05:39.083Z,99852.86
2022-07-29T16:08:42.463Z,99850.71
2022-07-29T16:11:46.901Z,99851.90
2022-07-29T16:14:51.463Z,99851.31
2022-07-29T16:17:54.964Z,99852.68
2022-07-29T16:20:58.827Z,99857.58
2022-07-29T16:24:02.235Z,99860.55
2022-07-29T16:27:05.625Z,99863.77
2022-07-29T16:30:12.204Z,99858.91
2022-07-29T16:33:15.248Z,99855.16
2022-07-29T16:36:19.666Z,99853.71
2022-07-29T16:39:23.137Z,99848.75
2022-07-29T16:42:45.669Z,99849.98
2022-07-29T16:45:51.004Z,99846.63
2022-07-29T16:48:56.850Z,99843.88
2022-07-29T16:52:06.776Z,99841.39
2022-07-29T16:55:09.925Z,99838.77
2022-07-29T16:58:12.901Z,99841.39
2022-07-29T17:01:17.632Z,99837.04
2022-07-29T17:04:32.569Z,99833.61
2022-07-29T17:07:42.604Z,99832.48
2022-07-29T17:10:46.339Z,99829.58
2022-07-29T17:13:50.181Z,99832.51
2022-07-29T17:17:04.941Z,99836.53
2022-07-29T17:20:18.188Z,99837.75
2022-07-29T17:23:21.415Z,99841.16
2022-07-29T17:26:28.173Z,99838.02
2022-07-29T17:29:35.746Z,99840.19
2022-07-29T17:32:45.154Z,99836.96
2022-07-29T17:36:07.061Z,99837.95
2022-07-29T17:39:13.557Z,99837.58
2022-07-29T17:42:16.859Z,99836.39
2022-07-29T17:45:22.016Z,99839.21
2022-07-29T17:48:25.195Z,99836.11
2022-07-29T17:51:32.787Z,99837.51
2022-07-29T17:54:39.577Z,99835.84
2022-07-29T17:57:43.546Z,99842.92
2022-07-29T18:00:50.310Z,99838.83
2022-07-29T18:04:00.155Z,99841.52
2022-07-29T18:07:06.769Z,99849.58
2022-07-29T18:10:15.678Z,99849.20
2022-07-29T18:13:29.397Z,99848.16
2022-07-29T18:16:35.375Z,99850.92
2022-07-29T18:19:41.477Z,99851.48
2022-07-29T18:22:49.880Z,99849.23
2022-07-29T18:25:56.743Z,99849.67
2022-07-29T18:29:02.782Z,99846.70
2022-07-29T18:32:06.473Z,99844.45
2022-07-29T18:35:10.623Z,99851.77
2022-07-29T18:38:14.354Z,99847.64
2022-07-29T18:41:17.642Z,99851.23
2022-07-29T18:44:25.830Z,99843.52
2022-07-29T18:47:32.273Z,99841.61
2022-07-29T18:50:36.503Z,99848.13
2022-07-29T18:53:39.460Z,99855.32
2022-07-29T18:56:42.687Z,99858.05
2022-07-29T18:59:45.908Z,99862.58
2022-07-29T19:02:49.024Z,99864.02
2022-07-29T19:05:52.160Z,99863.38
2022-07-29T19:08:55.541Z,99861.86
2022-07-29T19:12:01.969Z,99862.07
2022-07-29T19:15:08.420Z,99858.16
2022-07-29T19:18:13.567Z,99865.88
2022-07-29T19:21:16.664Z,99868.39
2022-07-29T19:24:20.333Z,99863.02
2022-07-29T19:27:24.048Z,99856.77
2022-07-29T19:30:28.531Z,99857.36
2022-07-29T19:33:33.100Z,99853.46
2022-07-29T19:36:37.236Z,99856.18
2022-07-29T19:39:42.876Z,99853.47
2022-07-29T19:42:46.047Z,99851.34
2022-07-29T19:45:50.402Z,99853.41
2022-07-29T19:48:53.991Z,99847.08
2022-07-29T19:51:57.016Z,99845.14
2022-07-29T19:55:05.292Z,99850.56
2022-07-29T19:58:10.426Z,99855.08
2022-07-29T20:01:13.913Z,99860.95
2022-07-29T20:04:19.911Z,99865.30
2022-07-29T20:07:22.930Z,99870.40
2022-07-29T20:10:26.603Z,99874.71
2022-07-29T20:13:31.921Z,99875.63
2022-07-29T20:16:35.316Z,99881.21
2022-07-29T20:19:38.238Z,99878.66
2022-07-29T20:22:44.646Z,99876.91
2022-07-29T20:25:48.592Z,99876.02
2022-07-29T20:28:51.617Z,99874.67
2022-07-29T20:31:56.721Z,99876.64
2022-07-29T20:35:02.385Z,99874.55
2022-07-29T20:38:05.683Z,99868.56
2022-07-29T20:41:09.112Z,99870.98
2022-07-29T20:44:12.007Z,99869.83
2022-07-29T20:47:17.785Z,99874.77
2022-07-29T20:50:23.744Z,99881.09
2022-07-29T20:53:27.915Z,99889.95
2022-07-29T20:56:31.606Z,99895.64
2022-07-29T20:59:35.989Z,99898.04
2022-07-29T21:02:39.314Z,99896.85
2022-07-29T21:05:45.457Z,99896.99
2022-07-29T21:08:48.475Z,99898.16
2022-07-29T21:11:53.698Z,99897.23
2022-07-29T21:14:59.315Z,99899.27
2022-07-29T21:18:05.891Z,99896.48
2022-07-29T21:21:08.962Z,99900.41
2022-07-29T21:24:12.243Z,99897.54
2022-07-29T21:27:38.415Z,99899.02
2022-07-29T21:30:41.825Z,99899.18
2022-07-29T21:33:46.892Z,99900.27
2022-07-29T21:36:51.347Z,99899.64
2022-07-29T21:39:54.524Z,99897.27
2022-07-29T21:42:57.395Z,99901.63
2022-07-29T21:46:01.168Z,99904.70
2022-07-29T21:49:04.640Z,99903.17
2022-07-29T21:52:10.557Z,99898.56
2022-07-29T21:55:14.707Z,99896.12
2022-07-29T21:58:26.419Z,99897.08
2022-07-29T22:01:38.969Z,99894.20
2022-07-29T22:04:45.486Z,99891.66
2022-07-29T22:07:55.357Z,99887.25
2022-07-29T22:11:12.741Z,99886.70
2022-07-29T22:14:20.532Z,99885.89
2022-07-29T22:17:31.010Z,99883.00
2022-07-29T22:20:47.035Z,99876.98
2022-07-29T22:23:50.338Z,99878.52
2022-07-29T22:26:53.097Z,99871.34
2022-07-29T22:29:57.097Z,99865.46
2022-07-29T22:32:59.967Z,99863.23
2022-07-29T22:36:02.990Z,99857.77
2022-07-29T22:39:06.217Z,99857.04
2022-07-29T22:42:09.289Z,99849.63
2022-07-29T22:45:12.368Z,99845.86
2022-07-29T22:48:16.564Z,99843.54
2022-07-29T22:51:19.437Z,99847.77
2022-07-29T22:54:22.410Z,99845.98
2022-07-29T22:57:26.095Z,99842.98
2022-07-29T23:00:29.271Z,99847.27
2022-07-29T23:03:32.172Z,99845.14
2022-07-29T23:06:35.013Z,99848.09
2022-07-29T23:09:38.091Z,99843.83
2022-07-29T23:12:42.493Z,99840.38
2022-07-29T23:15:46.594Z,99842.22
2022-07-29T23:18:49.564Z,99838.59
2022-07-29T23:21:54.994Z,99842.40
2022-07-29T23:24:57.860Z,99842.36
2022-07-29T23:28:01.044Z,99834.86
2022-07-29T23:31:03.974Z,99841.34
2022-07-29T23:34:06.897Z,99845.71
2022-07-29T23:37:09.851Z,99846.02
2022-07-29T23:40:14.785Z,99843.73
2022-07-29T23:43:18.049Z,99844.43
2022-07-29T23:46:23.680Z,99841.60
2022-07-29T23:49:28.223Z,99836.84
2022-07-29T23:52:31.105Z,99828.02
2022-07-29T23:55:36.958Z,99817.85
2022-07-29T23:58:42.017Z,99809.33
